<?xml version="1.0" encoding="UTF-8" standalone="no" ?>
<gpx xmlns="http://www.topografix.com/GPX/1/1" xmlns:xsi="http://www.w3.org/2001/XMLSchema-instance" xsi:schemaLocation="http://www.topografix.com/GPX/1/1 http://www.topografix.com/GPX/1/1/gpx.xsd" version="1.1" creator="VisuGPX - https://www.visugpx.com">
  <metadata>
    <name>Rando Château de Calmont d'Olt</name>
    <desc><![CDATA[à faire,nombreux jeux ludiques à l'extérieur.......]]></desc>
  </metadata>
  <trk>
    <name><![CDATA[Rando Château de Calmont d'Olt_1]]></name>
    <trkseg>
      <trkpt lat="44.51889" lon="2.75061">
        <ele>513.2</ele>
        <time>2022-04-25T14:00:03Z</time>
      </trkpt>
      <trkpt lat="44.51889" lon="2.75074">
        <ele>513.2</ele>
        <time>2022-04-25T14:00:14Z</time>
      </trkpt>
      <trkpt lat="44.51882" lon="2.7508">
        <ele>513.2</ele>
        <time>2022-04-25T14:00:26Z</time>
      </trkpt>
      <trkpt lat="44.51879" lon="2.7508">
        <ele>514.4</ele>
        <time>2022-04-25T14:00:30Z</time>
      </trkpt>
      <trkpt lat="44.51875" lon="2.75079">
        <ele>515.6</ele>
        <time>2022-04-25T14:00:35Z</time>
      </trkpt>
      <trkpt lat="44.51871" lon="2.7508">
        <ele>517</ele>
        <time>2022-04-25T14:00:41Z</time>
      </trkpt>
      <trkpt lat="44.51868" lon="2.7508">
        <ele>518.2</ele>
        <time>2022-04-25T14:00:46Z</time>
      </trkpt>
      <trkpt lat="44.51864" lon="2.75081">
        <ele>519.4</ele>
        <time>2022-04-25T14:00:51Z</time>
      </trkpt>
      <trkpt lat="44.51864" lon="2.75081">
        <ele>519.8</ele>
        <time>2022-04-25T14:00:52Z</time>
      </trkpt>
      <trkpt lat="44.51859" lon="2.75082">
        <ele>520.6</ele>
        <time>2022-04-25T14:00:56Z</time>
      </trkpt>
      <trkpt lat="44.51857" lon="2.75084">
        <ele>521.6</ele>
        <time>2022-04-25T14:00:59Z</time>
      </trkpt>
      <trkpt lat="44.51856" lon="2.75085">
        <ele>521.8</ele>
        <time>2022-04-25T14:01:00Z</time>
      </trkpt>
      <trkpt lat="44.51852" lon="2.75088">
        <ele>522.4</ele>
        <time>2022-04-25T14:01:05Z</time>
      </trkpt>
      <trkpt lat="44.51851" lon="2.75091">
        <ele>522.8</ele>
        <time>2022-04-25T14:01:07Z</time>
      </trkpt>
      <trkpt lat="44.51845" lon="2.751">
        <ele>524</ele>
        <time>2022-04-25T14:01:14Z</time>
      </trkpt>
      <trkpt lat="44.51842" lon="2.75106">
        <ele>525</ele>
        <time>2022-04-25T14:01:20Z</time>
      </trkpt>
      <trkpt lat="44.51842" lon="2.75109">
        <ele>525.6</ele>
        <time>2022-04-25T14:01:23Z</time>
      </trkpt>
      <trkpt lat="44.51842" lon="2.75109">
        <ele>525.8</ele>
        <time>2022-04-25T14:01:24Z</time>
      </trkpt>
      <trkpt lat="44.51843" lon="2.75113">
        <ele>526.2</ele>
        <time>2022-04-25T14:01:30Z</time>
      </trkpt>
      <trkpt lat="44.51842" lon="2.75116">
        <ele>526.4</ele>
        <time>2022-04-25T14:01:32Z</time>
      </trkpt>
      <trkpt lat="44.51842" lon="2.75118">
        <ele>526.8</ele>
        <time>2022-04-25T14:01:34Z</time>
      </trkpt>
      <trkpt lat="44.51841" lon="2.75122">
        <ele>527.2</ele>
        <time>2022-04-25T14:01:37Z</time>
      </trkpt>
      <trkpt lat="44.51841" lon="2.75127">
        <ele>528.4</ele>
        <time>2022-04-25T14:01:41Z</time>
      </trkpt>
      <trkpt lat="44.5184" lon="2.7513">
        <ele>528.6</ele>
        <time>2022-04-25T14:01:43Z</time>
      </trkpt>
      <trkpt lat="44.5184" lon="2.75137">
        <ele>529.6</ele>
        <time>2022-04-25T14:01:49Z</time>
      </trkpt>
      <trkpt lat="44.5184" lon="2.75137">
        <ele>529.6</ele>
        <time>2022-04-25T14:01:50Z</time>
      </trkpt>
      <trkpt lat="44.51838" lon="2.75147">
        <ele>530.6</ele>
        <time>2022-04-25T14:01:59Z</time>
      </trkpt>
      <trkpt lat="44.51837" lon="2.75148">
        <ele>531.2</ele>
        <time>2022-04-25T14:02:02Z</time>
      </trkpt>
      <trkpt lat="44.51836" lon="2.75148">
        <ele>531.4</ele>
        <time>2022-04-25T14:02:03Z</time>
      </trkpt>
      <trkpt lat="44.51836" lon="2.7515">
        <ele>531.6</ele>
        <time>2022-04-25T14:02:05Z</time>
      </trkpt>
      <trkpt lat="44.51835" lon="2.7516">
        <ele>532.6</ele>
        <time>2022-04-25T14:02:13Z</time>
      </trkpt>
      <trkpt lat="44.51834" lon="2.75161">
        <ele>532.8</ele>
        <time>2022-04-25T14:02:14Z</time>
      </trkpt>
      <trkpt lat="44.51831" lon="2.75171">
        <ele>533.8</ele>
        <time>2022-04-25T14:02:22Z</time>
      </trkpt>
      <trkpt lat="44.51831" lon="2.75172">
        <ele>534</ele>
        <time>2022-04-25T14:02:23Z</time>
      </trkpt>
      <trkpt lat="44.51828" lon="2.75176">
        <ele>535</ele>
        <time>2022-04-25T14:02:27Z</time>
      </trkpt>
      <trkpt lat="44.51822" lon="2.75185">
        <ele>536</ele>
        <time>2022-04-25T14:02:36Z</time>
      </trkpt>
      <trkpt lat="44.51822" lon="2.75185">
        <ele>536.4</ele>
        <time>2022-04-25T14:02:38Z</time>
      </trkpt>
      <trkpt lat="44.5182" lon="2.75187">
        <ele>536.4</ele>
        <time>2022-04-25T14:02:41Z</time>
      </trkpt>
      <trkpt lat="44.51815" lon="2.7519">
        <ele>537.2</ele>
        <time>2022-04-25T14:02:47Z</time>
      </trkpt>
      <trkpt lat="44.5181" lon="2.75194">
        <ele>537.6</ele>
        <time>2022-04-25T14:02:53Z</time>
      </trkpt>
      <trkpt lat="44.51797" lon="2.75206">
        <ele>536.8</ele>
        <time>2022-04-25T14:03:07Z</time>
      </trkpt>
      <trkpt lat="44.5179" lon="2.75214">
        <ele>537</ele>
        <time>2022-04-25T14:03:15Z</time>
      </trkpt>
      <trkpt lat="44.51786" lon="2.75218">
        <ele>537.2</ele>
        <time>2022-04-25T14:03:19Z</time>
      </trkpt>
      <trkpt lat="44.51782" lon="2.7522">
        <ele>537.6</ele>
        <time>2022-04-25T14:03:29Z</time>
      </trkpt>
      <trkpt lat="44.5178" lon="2.75222">
        <ele>538</ele>
        <time>2022-04-25T14:03:40Z</time>
      </trkpt>
      <trkpt lat="44.51781" lon="2.75222">
        <ele>538.2</ele>
        <time>2022-04-25T14:03:43Z</time>
      </trkpt>
      <trkpt lat="44.51778" lon="2.75228">
        <ele>537.4</ele>
        <time>2022-04-25T14:03:51Z</time>
      </trkpt>
      <trkpt lat="44.51772" lon="2.75232">
        <ele>537.2</ele>
        <time>2022-04-25T14:03:56Z</time>
      </trkpt>
      <trkpt lat="44.51767" lon="2.75236">
        <ele>536.6</ele>
        <time>2022-04-25T14:04:02Z</time>
      </trkpt>
      <trkpt lat="44.51758" lon="2.7525">
        <ele>536.6</ele>
        <time>2022-04-25T14:04:13Z</time>
      </trkpt>
      <trkpt lat="44.51751" lon="2.75263">
        <ele>537</ele>
        <time>2022-04-25T14:04:26Z</time>
      </trkpt>
      <trkpt lat="44.51749" lon="2.75268">
        <ele>537.4</ele>
        <time>2022-04-25T14:04:36Z</time>
      </trkpt>
      <trkpt lat="44.51745" lon="2.75281">
        <ele>538.2</ele>
        <time>2022-04-25T14:04:48Z</time>
      </trkpt>
      <trkpt lat="44.51745" lon="2.75282">
        <ele>538.4</ele>
        <time>2022-04-25T14:04:49Z</time>
      </trkpt>
      <trkpt lat="44.51744" lon="2.75282">
        <ele>538.8</ele>
        <time>2022-04-25T14:04:55Z</time>
      </trkpt>
      <trkpt lat="44.51745" lon="2.75282">
        <ele>539</ele>
        <time>2022-04-25T14:05:00Z</time>
      </trkpt>
      <trkpt lat="44.51747" lon="2.75283">
        <ele>539.4</ele>
        <time>2022-04-25T14:05:06Z</time>
      </trkpt>
      <trkpt lat="44.51753" lon="2.75289">
        <ele>540</ele>
        <time>2022-04-25T14:06:35Z</time>
      </trkpt>
      <trkpt lat="44.51747" lon="2.75295">
        <ele>540</ele>
        <time>2022-04-25T14:06:41Z</time>
      </trkpt>
      <trkpt lat="44.51744" lon="2.75295">
        <ele>540</ele>
        <time>2022-04-25T14:06:44Z</time>
      </trkpt>
      <trkpt lat="44.51742" lon="2.75296">
        <ele>540</ele>
        <time>2022-04-25T14:06:49Z</time>
      </trkpt>
      <trkpt lat="44.51739" lon="2.75296">
        <ele>540</ele>
        <time>2022-04-25T14:07:04Z</time>
      </trkpt>
      <trkpt lat="44.51744" lon="2.7529">
        <ele>540</ele>
        <time>2022-04-25T14:07:21Z</time>
      </trkpt>
      <trkpt lat="44.51744" lon="2.75292">
        <ele>540</ele>
        <time>2022-04-25T14:07:34Z</time>
      </trkpt>
      <trkpt lat="44.51741" lon="2.75288">
        <ele>540</ele>
        <time>2022-04-25T14:07:50Z</time>
      </trkpt>
      <trkpt lat="44.51745" lon="2.75291">
        <ele>540</ele>
        <time>2022-04-25T14:08:05Z</time>
      </trkpt>
      <trkpt lat="44.51743" lon="2.75298">
        <ele>540</ele>
        <time>2022-04-25T14:08:16Z</time>
      </trkpt>
      <trkpt lat="44.51742" lon="2.75295">
        <ele>540</ele>
        <time>2022-04-25T14:08:29Z</time>
      </trkpt>
      <trkpt lat="44.51741" lon="2.75298">
        <ele>540</ele>
        <time>2022-04-25T14:08:41Z</time>
      </trkpt>
      <trkpt lat="44.51732" lon="2.75302">
        <ele>540</ele>
        <time>2022-04-25T14:09:35Z</time>
      </trkpt>
      <trkpt lat="44.51751" lon="2.75302">
        <ele>540</ele>
        <time>2022-04-25T14:09:39Z</time>
      </trkpt>
      <trkpt lat="44.5175" lon="2.75301">
        <ele>540</ele>
        <time>2022-04-25T14:09:43Z</time>
      </trkpt>
      <trkpt lat="44.51747" lon="2.75302">
        <ele>540</ele>
        <time>2022-04-25T14:09:55Z</time>
      </trkpt>
      <trkpt lat="44.51748" lon="2.75303">
        <ele>540</ele>
        <time>2022-04-25T14:10:11Z</time>
      </trkpt>
      <trkpt lat="44.51748" lon="2.75304">
        <ele>540</ele>
        <time>2022-04-25T14:10:27Z</time>
      </trkpt>
      <trkpt lat="44.51748" lon="2.75305">
        <ele>540</ele>
        <time>2022-04-25T14:10:45Z</time>
      </trkpt>
      <trkpt lat="44.51747" lon="2.75314">
        <ele>540</ele>
        <time>2022-04-25T14:10:55Z</time>
      </trkpt>
      <trkpt lat="44.51747" lon="2.75314">
        <ele>539.4</ele>
        <time>2022-04-25T14:12:44Z</time>
      </trkpt>
      <trkpt lat="44.51818" lon="2.75251">
        <ele>547</ele>
        <time>2022-04-25T14:39:11Z</time>
      </trkpt>
      <trkpt lat="44.51815" lon="2.75238">
        <ele>547</ele>
        <time>2022-04-25T14:39:23Z</time>
      </trkpt>
      <trkpt lat="44.51816" lon="2.75229">
        <ele>546.2</ele>
        <time>2022-04-25T14:39:34Z</time>
      </trkpt>
      <trkpt lat="44.51816" lon="2.75229">
        <ele>546</ele>
        <time>2022-04-25T14:39:38Z</time>
      </trkpt>
      <trkpt lat="44.51817" lon="2.75227">
        <ele>545.6</ele>
        <time>2022-04-25T14:39:49Z</time>
      </trkpt>
      <trkpt lat="44.51818" lon="2.75227">
        <ele>545.6</ele>
        <time>2022-04-25T14:40:05Z</time>
      </trkpt>
      <trkpt lat="44.51816" lon="2.75227">
        <ele>545.6</ele>
        <time>2022-04-25T14:40:22Z</time>
      </trkpt>
      <trkpt lat="44.51815" lon="2.75227">
        <ele>545.6</ele>
        <time>2022-04-25T14:40:37Z</time>
      </trkpt>
      <trkpt lat="44.51816" lon="2.75226">
        <ele>545.6</ele>
        <time>2022-04-25T14:40:49Z</time>
      </trkpt>
      <trkpt lat="44.51817" lon="2.75225">
        <ele>545.6</ele>
        <time>2022-04-25T14:41:05Z</time>
      </trkpt>
      <trkpt lat="44.51818" lon="2.75224">
        <ele>545.6</ele>
        <time>2022-04-25T14:41:23Z</time>
      </trkpt>
      <trkpt lat="44.51818" lon="2.75224">
        <ele>545.6</ele>
        <time>2022-04-25T14:41:34Z</time>
      </trkpt>
      <trkpt lat="44.51816" lon="2.75225">
        <ele>545.6</ele>
        <time>2022-04-25T14:41:49Z</time>
      </trkpt>
      <trkpt lat="44.51817" lon="2.75222">
        <ele>545.6</ele>
        <time>2022-04-25T14:41:54Z</time>
      </trkpt>
      <trkpt lat="44.51818" lon="2.75218">
        <ele>545.6</ele>
        <time>2022-04-25T14:41:58Z</time>
      </trkpt>
      <trkpt lat="44.5182" lon="2.75213">
        <ele>545.6</ele>
        <time>2022-04-25T14:42:08Z</time>
      </trkpt>
      <trkpt lat="44.51819" lon="2.75215">
        <ele>545.6</ele>
        <time>2022-04-25T14:42:17Z</time>
      </trkpt>
      <trkpt lat="44.51819" lon="2.75216">
        <ele>545.6</ele>
        <time>2022-04-25T14:42:27Z</time>
      </trkpt>
      <trkpt lat="44.51817" lon="2.75215">
        <ele>545.6</ele>
        <time>2022-04-25T14:42:41Z</time>
      </trkpt>
      <trkpt lat="44.51819" lon="2.75212">
        <ele>545.6</ele>
        <time>2022-04-25T14:42:51Z</time>
      </trkpt>
      <trkpt lat="44.51817" lon="2.75212">
        <ele>545.6</ele>
        <time>2022-04-25T14:43:01Z</time>
      </trkpt>
      <trkpt lat="44.51816" lon="2.75211">
        <ele>545.6</ele>
        <time>2022-04-25T14:43:11Z</time>
      </trkpt>
      <trkpt lat="44.51815" lon="2.75212">
        <ele>545.6</ele>
        <time>2022-04-25T14:43:25Z</time>
      </trkpt>
      <trkpt lat="44.51814" lon="2.75211">
        <ele>545.6</ele>
        <time>2022-04-25T14:43:38Z</time>
      </trkpt>
      <trkpt lat="44.51815" lon="2.75211">
        <ele>545.6</ele>
        <time>2022-04-25T14:43:54Z</time>
      </trkpt>
      <trkpt lat="44.51815" lon="2.75211">
        <ele>545.6</ele>
        <time>2022-04-25T14:44:08Z</time>
      </trkpt>
      <trkpt lat="44.51817" lon="2.75219">
        <ele>545.6</ele>
        <time>2022-04-25T14:44:19Z</time>
      </trkpt>
      <trkpt lat="44.51818" lon="2.75223">
        <ele>545.6</ele>
        <time>2022-04-25T14:44:22Z</time>
      </trkpt>
      <trkpt lat="44.51818" lon="2.75226">
        <ele>545.6</ele>
        <time>2022-04-25T14:44:27Z</time>
      </trkpt>
      <trkpt lat="44.51818" lon="2.75226">
        <ele>545.6</ele>
        <time>2022-04-25T14:44:28Z</time>
      </trkpt>
      <trkpt lat="44.51816" lon="2.75224">
        <ele>545.6</ele>
        <time>2022-04-25T14:44:36Z</time>
      </trkpt>
      <trkpt lat="44.51811" lon="2.75223">
        <ele>547.2</ele>
        <time>2022-04-25T14:44:42Z</time>
      </trkpt>
      <trkpt lat="44.51805" lon="2.75225">
        <ele>548</ele>
        <time>2022-04-25T14:44:48Z</time>
      </trkpt>
      <trkpt lat="44.51802" lon="2.75229">
        <ele>548.2</ele>
        <time>2022-04-25T14:44:53Z</time>
      </trkpt>
      <trkpt lat="44.51801" lon="2.75229">
        <ele>548.2</ele>
        <time>2022-04-25T14:44:55Z</time>
      </trkpt>
      <trkpt lat="44.51801" lon="2.7523">
        <ele>548.2</ele>
        <time>2022-04-25T14:44:58Z</time>
      </trkpt>
      <trkpt lat="44.518" lon="2.75231">
        <ele>548.2</ele>
        <time>2022-04-25T14:45:01Z</time>
      </trkpt>
      <trkpt lat="44.518" lon="2.75234">
        <ele>548</ele>
        <time>2022-04-25T14:45:03Z</time>
      </trkpt>
      <trkpt lat="44.518" lon="2.75238">
        <ele>548.2</ele>
        <time>2022-04-25T14:45:06Z</time>
      </trkpt>
      <trkpt lat="44.51799" lon="2.7524">
        <ele>548.2</ele>
        <time>2022-04-25T14:45:08Z</time>
      </trkpt>
      <trkpt lat="44.51797" lon="2.75241">
        <ele>549.4</ele>
        <time>2022-04-25T14:45:12Z</time>
      </trkpt>
      <trkpt lat="44.51796" lon="2.75242">
        <ele>549.6</ele>
        <time>2022-04-25T14:45:14Z</time>
      </trkpt>
      <trkpt lat="44.51795" lon="2.75244">
        <ele>550</ele>
        <time>2022-04-25T14:45:19Z</time>
      </trkpt>
      <trkpt lat="44.51793" lon="2.75244">
        <ele>550</ele>
        <time>2022-04-25T14:45:30Z</time>
      </trkpt>
      <trkpt lat="44.51793" lon="2.75243">
        <ele>550.4</ele>
        <time>2022-04-25T14:45:35Z</time>
      </trkpt>
      <trkpt lat="44.51793" lon="2.75245">
        <ele>551</ele>
        <time>2022-04-25T14:45:44Z</time>
      </trkpt>
      <trkpt lat="44.51792" lon="2.75245">
        <ele>551.6</ele>
        <time>2022-04-25T14:45:46Z</time>
      </trkpt>
      <trkpt lat="44.51792" lon="2.75244">
        <ele>551.6</ele>
        <time>2022-04-25T14:46:00Z</time>
      </trkpt>
      <trkpt lat="44.51792" lon="2.75243">
        <ele>551</ele>
        <time>2022-04-25T14:46:12Z</time>
      </trkpt>
      <trkpt lat="44.51792" lon="2.75244">
        <ele>550.8</ele>
        <time>2022-04-25T14:46:28Z</time>
      </trkpt>
      <trkpt lat="44.51792" lon="2.75245">
        <ele>550.6</ele>
        <time>2022-04-25T14:46:29Z</time>
      </trkpt>
      <trkpt lat="44.51791" lon="2.75246">
        <ele>550.4</ele>
        <time>2022-04-25T14:46:43Z</time>
      </trkpt>
      <trkpt lat="44.51793" lon="2.75248">
        <ele>550.4</ele>
        <time>2022-04-25T14:46:57Z</time>
      </trkpt>
      <trkpt lat="44.51796" lon="2.75246">
        <ele>550.4</ele>
        <time>2022-04-25T14:47:07Z</time>
      </trkpt>
      <trkpt lat="44.51796" lon="2.75249">
        <ele>550.4</ele>
        <time>2022-04-25T14:47:12Z</time>
      </trkpt>
      <trkpt lat="44.51797" lon="2.75255">
        <ele>550.4</ele>
        <time>2022-04-25T14:47:31Z</time>
      </trkpt>
      <trkpt lat="44.51798" lon="2.75255">
        <ele>550.4</ele>
        <time>2022-04-25T14:47:46Z</time>
      </trkpt>
      <trkpt lat="44.51799" lon="2.75254">
        <ele>550.4</ele>
        <time>2022-04-25T14:47:49Z</time>
      </trkpt>
      <trkpt lat="44.51804" lon="2.75241">
        <ele>550.4</ele>
        <time>2022-04-25T14:48:15Z</time>
      </trkpt>
      <trkpt lat="44.51804" lon="2.75241">
        <ele>550.4</ele>
        <time>2022-04-25T14:48:25Z</time>
      </trkpt>
      <trkpt lat="44.5181" lon="2.75249">
        <ele>550.4</ele>
        <time>2022-04-25T14:48:31Z</time>
      </trkpt>
      <trkpt lat="44.51814" lon="2.7525">
        <ele>553.2</ele>
        <time>2022-04-25T14:48:35Z</time>
      </trkpt>
      <trkpt lat="44.51817" lon="2.75249">
        <ele>553.2</ele>
        <time>2022-04-25T14:48:36Z</time>
      </trkpt>
      <trkpt lat="44.5181" lon="2.75247">
        <ele>552.6</ele>
        <time>2022-04-25T14:48:44Z</time>
      </trkpt>
      <trkpt lat="44.51809" lon="2.75245">
        <ele>553.2</ele>
        <time>2022-04-25T14:48:45Z</time>
      </trkpt>
      <trkpt lat="44.5181" lon="2.75245">
        <ele>553.2</ele>
        <time>2022-04-25T14:48:46Z</time>
      </trkpt>
      <trkpt lat="44.51808" lon="2.75245">
        <ele>553.2</ele>
        <time>2022-04-25T14:48:49Z</time>
      </trkpt>
      <trkpt lat="44.51803" lon="2.75249">
        <ele>552.6</ele>
        <time>2022-04-25T14:48:59Z</time>
      </trkpt>
      <trkpt lat="44.51801" lon="2.75248">
        <ele>553.2</ele>
        <time>2022-04-25T14:49:01Z</time>
      </trkpt>
      <trkpt lat="44.51803" lon="2.75253">
        <ele>553.8</ele>
        <time>2022-04-25T14:49:05Z</time>
      </trkpt>
      <trkpt lat="44.51804" lon="2.75253">
        <ele>554</ele>
        <time>2022-04-25T14:49:07Z</time>
      </trkpt>
      <trkpt lat="44.51807" lon="2.75254">
        <ele>552.6</ele>
        <time>2022-04-25T14:49:22Z</time>
      </trkpt>
      <trkpt lat="44.51807" lon="2.75252">
        <ele>551.8</ele>
        <time>2022-04-25T14:49:31Z</time>
      </trkpt>
      <trkpt lat="44.51805" lon="2.7525">
        <ele>551.8</ele>
        <time>2022-04-25T14:49:38Z</time>
      </trkpt>
      <trkpt lat="44.51804" lon="2.7525">
        <ele>552.6</ele>
        <time>2022-04-25T14:49:47Z</time>
      </trkpt>
      <trkpt lat="44.51804" lon="2.7525">
        <ele>552.8</ele>
        <time>2022-04-25T14:49:48Z</time>
      </trkpt>
      <trkpt lat="44.51804" lon="2.75249">
        <ele>553</ele>
        <time>2022-04-25T14:49:51Z</time>
      </trkpt>
      <trkpt lat="44.51802" lon="2.75248">
        <ele>553.2</ele>
        <time>2022-04-25T14:50:04Z</time>
      </trkpt>
      <trkpt lat="44.51804" lon="2.75249">
        <ele>552.6</ele>
        <time>2022-04-25T14:50:15Z</time>
      </trkpt>
      <trkpt lat="44.51804" lon="2.75251">
        <ele>553</ele>
        <time>2022-04-25T14:50:27Z</time>
      </trkpt>
      <trkpt lat="44.51806" lon="2.75252">
        <ele>553.2</ele>
        <time>2022-04-25T14:50:43Z</time>
      </trkpt>
      <trkpt lat="44.51809" lon="2.75259">
        <ele>553.6</ele>
        <time>2022-04-25T14:50:52Z</time>
      </trkpt>
      <trkpt lat="44.51814" lon="2.75257">
        <ele>553.6</ele>
        <time>2022-04-25T14:51:07Z</time>
      </trkpt>
      <trkpt lat="44.51811" lon="2.75259">
        <ele>553.4</ele>
        <time>2022-04-25T14:51:20Z</time>
      </trkpt>
      <trkpt lat="44.5181" lon="2.75259">
        <ele>553.2</ele>
        <time>2022-04-25T14:51:26Z</time>
      </trkpt>
      <trkpt lat="44.51807" lon="2.7526">
        <ele>553.6</ele>
        <time>2022-04-25T14:51:36Z</time>
      </trkpt>
      <trkpt lat="44.51805" lon="2.75256">
        <ele>553.2</ele>
        <time>2022-04-25T14:51:52Z</time>
      </trkpt>
      <trkpt lat="44.51804" lon="2.75255">
        <ele>553.2</ele>
        <time>2022-04-25T14:52:05Z</time>
      </trkpt>
      <trkpt lat="44.51803" lon="2.75257">
        <ele>553.2</ele>
        <time>2022-04-25T14:52:20Z</time>
      </trkpt>
      <trkpt lat="44.51805" lon="2.75259">
        <ele>553.2</ele>
        <time>2022-04-25T14:52:31Z</time>
      </trkpt>
      <trkpt lat="44.51804" lon="2.75265">
        <ele>553.2</ele>
        <time>2022-04-25T14:52:44Z</time>
      </trkpt>
      <trkpt lat="44.51806" lon="2.75265">
        <ele>553.2</ele>
        <time>2022-04-25T14:52:58Z</time>
      </trkpt>
      <trkpt lat="44.51806" lon="2.75271">
        <ele>553.2</ele>
        <time>2022-04-25T14:53:13Z</time>
      </trkpt>
      <trkpt lat="44.51806" lon="2.7528">
        <ele>553.2</ele>
        <time>2022-04-25T14:53:26Z</time>
      </trkpt>
      <trkpt lat="44.51806" lon="2.75284">
        <ele>553.2</ele>
        <time>2022-04-25T14:53:41Z</time>
      </trkpt>
      <trkpt lat="44.51808" lon="2.75289">
        <ele>553.2</ele>
        <time>2022-04-25T14:53:58Z</time>
      </trkpt>
      <trkpt lat="44.51813" lon="2.75288">
        <ele>553.2</ele>
        <time>2022-04-25T14:54:14Z</time>
      </trkpt>
      <trkpt lat="44.51814" lon="2.75288">
        <ele>553.2</ele>
        <time>2022-04-25T14:54:18Z</time>
      </trkpt>
      <trkpt lat="44.51809" lon="2.7529">
        <ele>553.2</ele>
        <time>2022-04-25T14:54:26Z</time>
      </trkpt>
      <trkpt lat="44.51798" lon="2.7529">
        <ele>553.2</ele>
        <time>2022-04-25T14:54:51Z</time>
      </trkpt>
      <trkpt lat="44.51799" lon="2.75292">
        <ele>553.2</ele>
        <time>2022-04-25T14:55:04Z</time>
      </trkpt>
      <trkpt lat="44.51806" lon="2.75283">
        <ele>553.2</ele>
        <time>2022-04-25T14:55:17Z</time>
      </trkpt>
      <trkpt lat="44.51805" lon="2.75279">
        <ele>553.2</ele>
        <time>2022-04-25T14:55:31Z</time>
      </trkpt>
      <trkpt lat="44.51789" lon="2.75262">
        <ele>553.2</ele>
        <time>2022-04-25T14:56:09Z</time>
      </trkpt>
      <trkpt lat="44.51798" lon="2.75262">
        <ele>553.2</ele>
        <time>2022-04-25T14:56:19Z</time>
      </trkpt>
      <trkpt lat="44.51793" lon="2.75262">
        <ele>553.2</ele>
        <time>2022-04-25T14:56:30Z</time>
      </trkpt>
      <trkpt lat="44.51793" lon="2.75281">
        <ele>553.2</ele>
        <time>2022-04-25T14:56:53Z</time>
      </trkpt>
      <trkpt lat="44.51794" lon="2.75296">
        <ele>552.8</ele>
        <time>2022-04-25T14:57:03Z</time>
      </trkpt>
      <trkpt lat="44.51795" lon="2.75303">
        <ele>552</ele>
        <time>2022-04-25T14:57:12Z</time>
      </trkpt>
      <trkpt lat="44.51795" lon="2.75305">
        <ele>551.8</ele>
        <time>2022-04-25T14:57:14Z</time>
      </trkpt>
      <trkpt lat="44.51796" lon="2.75305">
        <ele>551.8</ele>
        <time>2022-04-25T14:57:16Z</time>
      </trkpt>
      <trkpt lat="44.51796" lon="2.75307">
        <ele>551.6</ele>
        <time>2022-04-25T14:57:18Z</time>
      </trkpt>
      <trkpt lat="44.51795" lon="2.7531">
        <ele>551.4</ele>
        <time>2022-04-25T14:57:24Z</time>
      </trkpt>
      <trkpt lat="44.51794" lon="2.75312">
        <ele>550.8</ele>
        <time>2022-04-25T14:57:28Z</time>
      </trkpt>
      <trkpt lat="44.51794" lon="2.75314">
        <ele>551.4</ele>
        <time>2022-04-25T14:57:39Z</time>
      </trkpt>
      <trkpt lat="44.51799" lon="2.75307">
        <ele>551</ele>
        <time>2022-04-25T14:57:48Z</time>
      </trkpt>
      <trkpt lat="44.51798" lon="2.75306">
        <ele>551.4</ele>
        <time>2022-04-25T14:57:50Z</time>
      </trkpt>
      <trkpt lat="44.51796" lon="2.75305">
        <ele>552</ele>
        <time>2022-04-25T14:57:52Z</time>
      </trkpt>
      <trkpt lat="44.51794" lon="2.75304">
        <ele>551.8</ele>
        <time>2022-04-25T14:57:54Z</time>
      </trkpt>
      <trkpt lat="44.51794" lon="2.75303">
        <ele>551.8</ele>
        <time>2022-04-25T14:57:55Z</time>
      </trkpt>
      <trkpt lat="44.51793" lon="2.75303">
        <ele>551.8</ele>
        <time>2022-04-25T14:57:56Z</time>
      </trkpt>
      <trkpt lat="44.51793" lon="2.75302">
        <ele>552</ele>
        <time>2022-04-25T14:57:58Z</time>
      </trkpt>
      <trkpt lat="44.51793" lon="2.75301">
        <ele>552.8</ele>
        <time>2022-04-25T14:58:00Z</time>
      </trkpt>
      <trkpt lat="44.51793" lon="2.75301">
        <ele>553</ele>
        <time>2022-04-25T14:58:01Z</time>
      </trkpt>
      <trkpt lat="44.51793" lon="2.753">
        <ele>553.8</ele>
        <time>2022-04-25T14:58:07Z</time>
      </trkpt>
      <trkpt lat="44.51793" lon="2.753">
        <ele>554</ele>
        <time>2022-04-25T14:58:08Z</time>
      </trkpt>
      <trkpt lat="44.51793" lon="2.753">
        <ele>554.4</ele>
        <time>2022-04-25T14:58:11Z</time>
      </trkpt>
      <trkpt lat="44.5179" lon="2.75296">
        <ele>554.6</ele>
        <time>2022-04-25T14:58:19Z</time>
      </trkpt>
      <trkpt lat="44.51786" lon="2.75299">
        <ele>555</ele>
        <time>2022-04-25T14:58:26Z</time>
      </trkpt>
      <trkpt lat="44.51786" lon="2.753">
        <ele>555.2</ele>
        <time>2022-04-25T14:58:28Z</time>
      </trkpt>
      <trkpt lat="44.51784" lon="2.75293">
        <ele>555.6</ele>
        <time>2022-04-25T14:58:40Z</time>
      </trkpt>
      <trkpt lat="44.51783" lon="2.75289">
        <ele>556</ele>
        <time>2022-04-25T14:58:49Z</time>
      </trkpt>
      <trkpt lat="44.51784" lon="2.75289">
        <ele>556</ele>
        <time>2022-04-25T14:58:50Z</time>
      </trkpt>
      <trkpt lat="44.51791" lon="2.7529">
        <ele>556</ele>
        <time>2022-04-25T14:59:05Z</time>
      </trkpt>
      <trkpt lat="44.51791" lon="2.75291">
        <ele>556.2</ele>
        <time>2022-04-25T14:59:19Z</time>
      </trkpt>
      <trkpt lat="44.51791" lon="2.75291">
        <ele>556.2</ele>
        <time>2022-04-25T14:59:31Z</time>
      </trkpt>
      <trkpt lat="44.5179" lon="2.75289">
        <ele>556</ele>
        <time>2022-04-25T14:59:42Z</time>
      </trkpt>
      <trkpt lat="44.51787" lon="2.75294">
        <ele>556.4</ele>
        <time>2022-04-25T14:59:56Z</time>
      </trkpt>
      <trkpt lat="44.51787" lon="2.75295">
        <ele>555.8</ele>
        <time>2022-04-25T15:00:11Z</time>
      </trkpt>
      <trkpt lat="44.51788" lon="2.75294">
        <ele>556</ele>
        <time>2022-04-25T15:00:24Z</time>
      </trkpt>
      <trkpt lat="44.51784" lon="2.7529">
        <ele>556</ele>
        <time>2022-04-25T15:00:33Z</time>
      </trkpt>
      <trkpt lat="44.51783" lon="2.75289">
        <ele>555.2</ele>
        <time>2022-04-25T15:00:46Z</time>
      </trkpt>
      <trkpt lat="44.51785" lon="2.75292">
        <ele>555.6</ele>
        <time>2022-04-25T15:01:01Z</time>
      </trkpt>
      <trkpt lat="44.51785" lon="2.75292">
        <ele>555.6</ele>
        <time>2022-04-25T15:01:16Z</time>
      </trkpt>
      <trkpt lat="44.51784" lon="2.75287">
        <ele>556</ele>
        <time>2022-04-25T15:01:21Z</time>
      </trkpt>
      <trkpt lat="44.51784" lon="2.75286">
        <ele>556.6</ele>
        <time>2022-04-25T15:01:24Z</time>
      </trkpt>
      <trkpt lat="44.51785" lon="2.75286">
        <ele>557</ele>
        <time>2022-04-25T15:01:26Z</time>
      </trkpt>
      <trkpt lat="44.51785" lon="2.75285">
        <ele>557</ele>
        <time>2022-04-25T15:01:27Z</time>
      </trkpt>
      <trkpt lat="44.51785" lon="2.75284">
        <ele>557.4</ele>
        <time>2022-04-25T15:01:39Z</time>
      </trkpt>
      <trkpt lat="44.51786" lon="2.75284">
        <ele>557.8</ele>
        <time>2022-04-25T15:01:56Z</time>
      </trkpt>
      <trkpt lat="44.51787" lon="2.75281">
        <ele>557.2</ele>
        <time>2022-04-25T15:02:09Z</time>
      </trkpt>
      <trkpt lat="44.51789" lon="2.75276">
        <ele>557.6</ele>
        <time>2022-04-25T15:02:22Z</time>
      </trkpt>
      <trkpt lat="44.51793" lon="2.75271">
        <ele>557.8</ele>
        <time>2022-04-25T15:02:29Z</time>
      </trkpt>
      <trkpt lat="44.51793" lon="2.75269">
        <ele>558</ele>
        <time>2022-04-25T15:02:31Z</time>
      </trkpt>
      <trkpt lat="44.51793" lon="2.75268">
        <ele>558.2</ele>
        <time>2022-04-25T15:02:32Z</time>
      </trkpt>
      <trkpt lat="44.51793" lon="2.75268">
        <ele>558.6</ele>
        <time>2022-04-25T15:02:34Z</time>
      </trkpt>
      <trkpt lat="44.51794" lon="2.75267">
        <ele>558.8</ele>
        <time>2022-04-25T15:02:50Z</time>
      </trkpt>
      <trkpt lat="44.51795" lon="2.75267">
        <ele>559.4</ele>
        <time>2022-04-25T15:02:56Z</time>
      </trkpt>
      <trkpt lat="44.518" lon="2.75262">
        <ele>560.2</ele>
        <time>2022-04-25T15:03:05Z</time>
      </trkpt>
      <trkpt lat="44.51799" lon="2.75258">
        <ele>560.2</ele>
        <time>2022-04-25T15:03:11Z</time>
      </trkpt>
      <trkpt lat="44.51799" lon="2.75258">
        <ele>559.6</ele>
        <time>2022-04-25T15:03:45Z</time>
      </trkpt>
      <trkpt lat="44.51799" lon="2.75258">
        <ele>559.4</ele>
        <time>2022-04-25T15:06:22Z</time>
      </trkpt>
      <trkpt lat="44.51799" lon="2.75258">
        <ele>559.4</ele>
        <time>2022-04-25T15:09:38Z</time>
      </trkpt>
      <trkpt lat="44.51798" lon="2.75249">
        <ele>559.4</ele>
        <time>2022-04-25T15:11:46Z</time>
      </trkpt>
      <trkpt lat="44.51797" lon="2.75246">
        <ele>559.4</ele>
        <time>2022-04-25T15:11:51Z</time>
      </trkpt>
      <trkpt lat="44.51793" lon="2.7525">
        <ele>559.4</ele>
        <time>2022-04-25T15:11:56Z</time>
      </trkpt>
      <trkpt lat="44.51791" lon="2.75252">
        <ele>559.4</ele>
        <time>2022-04-25T15:12:05Z</time>
      </trkpt>
      <trkpt lat="44.51789" lon="2.75256">
        <ele>559.4</ele>
        <time>2022-04-25T15:12:14Z</time>
      </trkpt>
      <trkpt lat="44.5179" lon="2.75258">
        <ele>559.4</ele>
        <time>2022-04-25T15:12:25Z</time>
      </trkpt>
      <trkpt lat="44.51789" lon="2.75258">
        <ele>559.4</ele>
        <time>2022-04-25T15:12:33Z</time>
      </trkpt>
      <trkpt lat="44.51793" lon="2.75257">
        <ele>559.4</ele>
        <time>2022-04-25T15:12:42Z</time>
      </trkpt>
      <trkpt lat="44.51793" lon="2.75257">
        <ele>564</ele>
        <time>2022-04-25T15:12:59Z</time>
      </trkpt>
      <trkpt lat="44.51793" lon="2.75257">
        <ele>563</ele>
        <time>2022-04-25T15:13:28Z</time>
      </trkpt>
      <trkpt lat="44.51802" lon="2.75263">
        <ele>563</ele>
        <time>2022-04-25T15:16:17Z</time>
      </trkpt>
      <trkpt lat="44.51784" lon="2.75251">
        <ele>563</ele>
        <time>2022-04-25T15:16:21Z</time>
      </trkpt>
      <trkpt lat="44.51786" lon="2.7525">
        <ele>563</ele>
        <time>2022-04-25T15:16:25Z</time>
      </trkpt>
      <trkpt lat="44.51789" lon="2.75251">
        <ele>563</ele>
        <time>2022-04-25T15:16:29Z</time>
      </trkpt>
      <trkpt lat="44.51793" lon="2.75253">
        <ele>563</ele>
        <time>2022-04-25T15:16:38Z</time>
      </trkpt>
      <trkpt lat="44.51796" lon="2.75255">
        <ele>563</ele>
        <time>2022-04-25T15:16:47Z</time>
      </trkpt>
      <trkpt lat="44.51797" lon="2.75252">
        <ele>563</ele>
        <time>2022-04-25T15:16:52Z</time>
      </trkpt>
      <trkpt lat="44.51798" lon="2.75252">
        <ele>563</ele>
        <time>2022-04-25T15:16:59Z</time>
      </trkpt>
      <trkpt lat="44.51799" lon="2.75251">
        <ele>566.4</ele>
        <time>2022-04-25T15:17:03Z</time>
      </trkpt>
      <trkpt lat="44.51799" lon="2.75253">
        <ele>566.4</ele>
        <time>2022-04-25T15:17:05Z</time>
      </trkpt>
      <trkpt lat="44.51798" lon="2.75255">
        <ele>566.6</ele>
        <time>2022-04-25T15:17:12Z</time>
      </trkpt>
      <trkpt lat="44.51796" lon="2.75254">
        <ele>566.8</ele>
        <time>2022-04-25T15:17:21Z</time>
      </trkpt>
      <trkpt lat="44.51796" lon="2.75254">
        <ele>567.4</ele>
        <time>2022-04-25T15:17:24Z</time>
      </trkpt>
      <trkpt lat="44.51796" lon="2.75254">
        <ele>567.8</ele>
        <time>2022-04-25T15:17:36Z</time>
      </trkpt>
      <trkpt lat="44.51797" lon="2.75258">
        <ele>567</ele>
        <time>2022-04-25T15:17:50Z</time>
      </trkpt>
      <trkpt lat="44.51801" lon="2.75256">
        <ele>566.6</ele>
        <time>2022-04-25T15:18:03Z</time>
      </trkpt>
      <trkpt lat="44.518" lon="2.75253">
        <ele>566.4</ele>
        <time>2022-04-25T15:18:13Z</time>
      </trkpt>
      <trkpt lat="44.51801" lon="2.75252">
        <ele>566.6</ele>
        <time>2022-04-25T15:18:19Z</time>
      </trkpt>
      <trkpt lat="44.51799" lon="2.75258">
        <ele>566.4</ele>
        <time>2022-04-25T15:18:29Z</time>
      </trkpt>
      <trkpt lat="44.518" lon="2.75258">
        <ele>566.4</ele>
        <time>2022-04-25T15:18:43Z</time>
      </trkpt>
      <trkpt lat="44.51798" lon="2.75261">
        <ele>566</ele>
        <time>2022-04-25T15:19:02Z</time>
      </trkpt>
      <trkpt lat="44.51797" lon="2.75261">
        <ele>566</ele>
        <time>2022-04-25T15:19:12Z</time>
      </trkpt>
      <trkpt lat="44.51796" lon="2.75263">
        <ele>566.4</ele>
        <time>2022-04-25T15:19:27Z</time>
      </trkpt>
      <trkpt lat="44.51797" lon="2.75264">
        <ele>567</ele>
        <time>2022-04-25T15:19:41Z</time>
      </trkpt>
      <trkpt lat="44.51796" lon="2.75265">
        <ele>566.6</ele>
        <time>2022-04-25T15:19:54Z</time>
      </trkpt>
      <trkpt lat="44.51797" lon="2.75266">
        <ele>566.8</ele>
        <time>2022-04-25T15:20:09Z</time>
      </trkpt>
      <trkpt lat="44.51797" lon="2.75266">
        <ele>566.8</ele>
        <time>2022-04-25T15:20:26Z</time>
      </trkpt>
      <trkpt lat="44.51796" lon="2.75264">
        <ele>567</ele>
        <time>2022-04-25T15:20:41Z</time>
      </trkpt>
      <trkpt lat="44.51795" lon="2.75262">
        <ele>566.8</ele>
        <time>2022-04-25T15:20:54Z</time>
      </trkpt>
      <trkpt lat="44.51796" lon="2.75257">
        <ele>566</ele>
        <time>2022-04-25T15:21:07Z</time>
      </trkpt>
      <trkpt lat="44.51794" lon="2.75257">
        <ele>565.8</ele>
        <time>2022-04-25T15:21:24Z</time>
      </trkpt>
      <trkpt lat="44.51794" lon="2.75257">
        <ele>565.6</ele>
        <time>2022-04-25T15:21:36Z</time>
      </trkpt>
      <trkpt lat="44.51794" lon="2.75257">
        <ele>565.4</ele>
        <time>2022-04-25T15:21:49Z</time>
      </trkpt>
      <trkpt lat="44.51796" lon="2.75261">
        <ele>566</ele>
        <time>2022-04-25T15:21:59Z</time>
      </trkpt>
      <trkpt lat="44.51794" lon="2.75262">
        <ele>566.2</ele>
        <time>2022-04-25T15:22:14Z</time>
      </trkpt>
      <trkpt lat="44.51798" lon="2.7526">
        <ele>566.2</ele>
        <time>2022-04-25T15:22:21Z</time>
      </trkpt>
      <trkpt lat="44.51799" lon="2.75261">
        <ele>566.2</ele>
        <time>2022-04-25T15:22:28Z</time>
      </trkpt>
      <trkpt lat="44.51796" lon="2.75265">
        <ele>566.2</ele>
        <time>2022-04-25T15:22:41Z</time>
      </trkpt>
      <trkpt lat="44.51797" lon="2.75267">
        <ele>566.2</ele>
        <time>2022-04-25T15:22:49Z</time>
      </trkpt>
      <trkpt lat="44.51796" lon="2.75262">
        <ele>566.2</ele>
        <time>2022-04-25T15:22:59Z</time>
      </trkpt>
      <trkpt lat="44.51796" lon="2.75255">
        <ele>566.2</ele>
        <time>2022-04-25T15:23:09Z</time>
      </trkpt>
      <trkpt lat="44.51796" lon="2.75255">
        <ele>563.6</ele>
        <time>2022-04-25T15:23:24Z</time>
      </trkpt>
      <trkpt lat="44.51796" lon="2.75255">
        <ele>562.4</ele>
        <time>2022-04-25T15:23:37Z</time>
      </trkpt>
      <trkpt lat="44.51796" lon="2.75255">
        <ele>562.4</ele>
        <time>2022-04-25T15:24:16Z</time>
      </trkpt>
      <trkpt lat="44.5181" lon="2.75244">
        <ele>562.6</ele>
        <time>2022-04-25T15:29:07Z</time>
      </trkpt>
      <trkpt lat="44.51802" lon="2.75251">
        <ele>562.6</ele>
        <time>2022-04-25T15:29:15Z</time>
      </trkpt>
      <trkpt lat="44.51797" lon="2.75255">
        <ele>562.6</ele>
        <time>2022-04-25T15:29:27Z</time>
      </trkpt>
      <trkpt lat="44.51795" lon="2.75262">
        <ele>562.6</ele>
        <time>2022-04-25T15:29:41Z</time>
      </trkpt>
      <trkpt lat="44.51794" lon="2.75263">
        <ele>556.4</ele>
        <time>2022-04-25T15:29:42Z</time>
      </trkpt>
      <trkpt lat="44.51791" lon="2.75265">
        <ele>556.2</ele>
        <time>2022-04-25T15:29:56Z</time>
      </trkpt>
      <trkpt lat="44.51789" lon="2.75267">
        <ele>556.2</ele>
        <time>2022-04-25T15:30:08Z</time>
      </trkpt>
      <trkpt lat="44.51788" lon="2.75281">
        <ele>557.4</ele>
        <time>2022-04-25T15:30:20Z</time>
      </trkpt>
      <trkpt lat="44.51788" lon="2.75282">
        <ele>557.4</ele>
        <time>2022-04-25T15:30:21Z</time>
      </trkpt>
      <trkpt lat="44.51783" lon="2.75286">
        <ele>556</ele>
        <time>2022-04-25T15:30:29Z</time>
      </trkpt>
      <trkpt lat="44.51783" lon="2.75286">
        <ele>556</ele>
        <time>2022-04-25T15:30:30Z</time>
      </trkpt>
      <trkpt lat="44.51785" lon="2.75287">
        <ele>556.2</ele>
        <time>2022-04-25T15:30:44Z</time>
      </trkpt>
      <trkpt lat="44.51786" lon="2.75291">
        <ele>555.8</ele>
        <time>2022-04-25T15:30:58Z</time>
      </trkpt>
      <trkpt lat="44.51784" lon="2.75301">
        <ele>555.4</ele>
        <time>2022-04-25T15:31:10Z</time>
      </trkpt>
      <trkpt lat="44.51784" lon="2.75301">
        <ele>555.4</ele>
        <time>2022-04-25T15:31:11Z</time>
      </trkpt>
      <trkpt lat="44.51783" lon="2.75302">
        <ele>555.4</ele>
        <time>2022-04-25T15:31:13Z</time>
      </trkpt>
      <trkpt lat="44.51781" lon="2.75302">
        <ele>555.4</ele>
        <time>2022-04-25T15:31:15Z</time>
      </trkpt>
      <trkpt lat="44.51779" lon="2.75302">
        <ele>555.2</ele>
        <time>2022-04-25T15:31:18Z</time>
      </trkpt>
      <trkpt lat="44.51779" lon="2.75302">
        <ele>555.2</ele>
        <time>2022-04-25T15:31:21Z</time>
      </trkpt>
      <trkpt lat="44.51776" lon="2.75301">
        <ele>555.2</ele>
        <time>2022-04-25T15:31:33Z</time>
      </trkpt>
      <trkpt lat="44.51774" lon="2.75297">
        <ele>555</ele>
        <time>2022-04-25T15:31:40Z</time>
      </trkpt>
      <trkpt lat="44.51773" lon="2.7529">
        <ele>554</ele>
        <time>2022-04-25T15:31:47Z</time>
      </trkpt>
      <trkpt lat="44.51775" lon="2.75283">
        <ele>553.8</ele>
        <time>2022-04-25T15:31:55Z</time>
      </trkpt>
      <trkpt lat="44.51775" lon="2.75282">
        <ele>553.4</ele>
        <time>2022-04-25T15:32:00Z</time>
      </trkpt>
      <trkpt lat="44.51771" lon="2.75277">
        <ele>552.8</ele>
        <time>2022-04-25T15:32:14Z</time>
      </trkpt>
      <trkpt lat="44.5177" lon="2.75278">
        <ele>552.6</ele>
        <time>2022-04-25T15:32:15Z</time>
      </trkpt>
      <trkpt lat="44.51767" lon="2.75277">
        <ele>551.8</ele>
        <time>2022-04-25T15:32:19Z</time>
      </trkpt>
      <trkpt lat="44.51767" lon="2.75285">
        <ele>550.8</ele>
        <time>2022-04-25T15:32:27Z</time>
      </trkpt>
      <trkpt lat="44.51769" lon="2.75288">
        <ele>550.8</ele>
        <time>2022-04-25T15:32:30Z</time>
      </trkpt>
      <trkpt lat="44.51769" lon="2.75291">
        <ele>550.8</ele>
        <time>2022-04-25T15:32:32Z</time>
      </trkpt>
      <trkpt lat="44.5177" lon="2.75295">
        <ele>550.2</ele>
        <time>2022-04-25T15:32:34Z</time>
      </trkpt>
      <trkpt lat="44.51771" lon="2.75297">
        <ele>550</ele>
        <time>2022-04-25T15:32:37Z</time>
      </trkpt>
      <trkpt lat="44.5177" lon="2.75298">
        <ele>549.8</ele>
        <time>2022-04-25T15:32:39Z</time>
      </trkpt>
      <trkpt lat="44.5177" lon="2.75297">
        <ele>550</ele>
        <time>2022-04-25T15:32:41Z</time>
      </trkpt>
      <trkpt lat="44.51769" lon="2.75296">
        <ele>549.6</ele>
        <time>2022-04-25T15:32:44Z</time>
      </trkpt>
      <trkpt lat="44.51768" lon="2.75295">
        <ele>549.2</ele>
        <time>2022-04-25T15:32:45Z</time>
      </trkpt>
      <trkpt lat="44.51767" lon="2.75294">
        <ele>548.4</ele>
        <time>2022-04-25T15:32:49Z</time>
      </trkpt>
      <trkpt lat="44.51765" lon="2.75294">
        <ele>548.2</ele>
        <time>2022-04-25T15:33:00Z</time>
      </trkpt>
      <trkpt lat="44.51766" lon="2.7529">
        <ele>548.4</ele>
        <time>2022-04-25T15:33:17Z</time>
      </trkpt>
      <trkpt lat="44.51766" lon="2.75295">
        <ele>548.4</ele>
        <time>2022-04-25T15:33:31Z</time>
      </trkpt>
      <trkpt lat="44.51769" lon="2.75298">
        <ele>548.2</ele>
        <time>2022-04-25T15:33:42Z</time>
      </trkpt>
      <trkpt lat="44.51766" lon="2.75298">
        <ele>548.8</ele>
        <time>2022-04-25T15:33:57Z</time>
      </trkpt>
      <trkpt lat="44.51764" lon="2.75297">
        <ele>548.6</ele>
        <time>2022-04-25T15:34:12Z</time>
      </trkpt>
      <trkpt lat="44.51763" lon="2.75297">
        <ele>548.4</ele>
        <time>2022-04-25T15:34:28Z</time>
      </trkpt>
      <trkpt lat="44.51762" lon="2.75299">
        <ele>549.2</ele>
        <time>2022-04-25T15:34:41Z</time>
      </trkpt>
      <trkpt lat="44.51765" lon="2.75298">
        <ele>549</ele>
        <time>2022-04-25T15:34:58Z</time>
      </trkpt>
      <trkpt lat="44.51765" lon="2.75297">
        <ele>549.2</ele>
        <time>2022-04-25T15:35:13Z</time>
      </trkpt>
      <trkpt lat="44.51765" lon="2.75297">
        <ele>549</ele>
        <time>2022-04-25T15:35:27Z</time>
      </trkpt>
      <trkpt lat="44.51767" lon="2.75295">
        <ele>549</ele>
        <time>2022-04-25T15:35:44Z</time>
      </trkpt>
      <trkpt lat="44.51767" lon="2.75294">
        <ele>549.2</ele>
        <time>2022-04-25T15:35:57Z</time>
      </trkpt>
      <trkpt lat="44.51768" lon="2.75293">
        <ele>549.6</ele>
        <time>2022-04-25T15:35:58Z</time>
      </trkpt>
      <trkpt lat="44.51766" lon="2.75292">
        <ele>549.6</ele>
        <time>2022-04-25T15:36:14Z</time>
      </trkpt>
      <trkpt lat="44.51766" lon="2.75296">
        <ele>549.6</ele>
        <time>2022-04-25T15:36:16Z</time>
      </trkpt>
      <trkpt lat="44.51753" lon="2.75301">
        <ele>549.6</ele>
        <time>2022-04-25T15:36:31Z</time>
      </trkpt>
      <trkpt lat="44.51755" lon="2.75301">
        <ele>549.6</ele>
        <time>2022-04-25T15:36:38Z</time>
      </trkpt>
      <trkpt lat="44.51759" lon="2.75295">
        <ele>549.6</ele>
        <time>2022-04-25T15:36:45Z</time>
      </trkpt>
      <trkpt lat="44.5177" lon="2.7529">
        <ele>549.6</ele>
        <time>2022-04-25T15:36:53Z</time>
      </trkpt>
      <trkpt lat="44.51765" lon="2.75293">
        <ele>549.6</ele>
        <time>2022-04-25T15:37:01Z</time>
      </trkpt>
      <trkpt lat="44.51764" lon="2.75294">
        <ele>549.6</ele>
        <time>2022-04-25T15:37:06Z</time>
      </trkpt>
      <trkpt lat="44.51765" lon="2.75293">
        <ele>549.6</ele>
        <time>2022-04-25T15:37:08Z</time>
      </trkpt>
      <trkpt lat="44.51767" lon="2.75292">
        <ele>549.6</ele>
        <time>2022-04-25T15:37:15Z</time>
      </trkpt>
      <trkpt lat="44.51767" lon="2.75296">
        <ele>549.6</ele>
        <time>2022-04-25T15:37:22Z</time>
      </trkpt>
      <trkpt lat="44.51766" lon="2.75296">
        <ele>549.6</ele>
        <time>2022-04-25T15:37:29Z</time>
      </trkpt>
      <trkpt lat="44.51766" lon="2.75296">
        <ele>549.6</ele>
        <time>2022-04-25T15:37:37Z</time>
      </trkpt>
      <trkpt lat="44.51766" lon="2.75296">
        <ele>549.6</ele>
        <time>2022-04-25T15:37:44Z</time>
      </trkpt>
      <trkpt lat="44.51765" lon="2.75298">
        <ele>549.6</ele>
        <time>2022-04-25T15:37:52Z</time>
      </trkpt>
      <trkpt lat="44.51765" lon="2.75298">
        <ele>549.6</ele>
        <time>2022-04-25T15:38:03Z</time>
      </trkpt>
      <trkpt lat="44.51766" lon="2.75299">
        <ele>549.6</ele>
        <time>2022-04-25T15:38:10Z</time>
      </trkpt>
      <trkpt lat="44.51763" lon="2.75297">
        <ele>549.6</ele>
        <time>2022-04-25T15:38:18Z</time>
      </trkpt>
      <trkpt lat="44.51763" lon="2.75299">
        <ele>549.6</ele>
        <time>2022-04-25T15:38:24Z</time>
      </trkpt>
      <trkpt lat="44.51762" lon="2.75298">
        <ele>549.6</ele>
        <time>2022-04-25T15:38:32Z</time>
      </trkpt>
      <trkpt lat="44.51768" lon="2.75299">
        <ele>549.6</ele>
        <time>2022-04-25T15:38:38Z</time>
      </trkpt>
      <trkpt lat="44.51767" lon="2.75298">
        <ele>549.6</ele>
        <time>2022-04-25T15:38:46Z</time>
      </trkpt>
      <trkpt lat="44.51764" lon="2.75301">
        <ele>549.6</ele>
        <time>2022-04-25T15:38:54Z</time>
      </trkpt>
      <trkpt lat="44.51765" lon="2.75303">
        <ele>549.6</ele>
        <time>2022-04-25T15:39:00Z</time>
      </trkpt>
      <trkpt lat="44.51764" lon="2.75305">
        <ele>549.6</ele>
        <time>2022-04-25T15:39:07Z</time>
      </trkpt>
      <trkpt lat="44.51768" lon="2.75304">
        <ele>549.6</ele>
        <time>2022-04-25T15:39:14Z</time>
      </trkpt>
      <trkpt lat="44.51767" lon="2.75305">
        <ele>549.6</ele>
        <time>2022-04-25T15:39:19Z</time>
      </trkpt>
      <trkpt lat="44.51762" lon="2.75303">
        <ele>549.6</ele>
        <time>2022-04-25T15:39:27Z</time>
      </trkpt>
      <trkpt lat="44.51758" lon="2.75304">
        <ele>549.6</ele>
        <time>2022-04-25T15:39:35Z</time>
      </trkpt>
      <trkpt lat="44.51757" lon="2.75302">
        <ele>549.6</ele>
        <time>2022-04-25T15:39:42Z</time>
      </trkpt>
      <trkpt lat="44.51754" lon="2.75301">
        <ele>549.6</ele>
        <time>2022-04-25T15:39:51Z</time>
      </trkpt>
      <trkpt lat="44.51753" lon="2.753">
        <ele>549.6</ele>
        <time>2022-04-25T15:40:00Z</time>
      </trkpt>
      <trkpt lat="44.5176" lon="2.75302">
        <ele>549.6</ele>
        <time>2022-04-25T15:40:09Z</time>
      </trkpt>
      <trkpt lat="44.51764" lon="2.75304">
        <ele>549.6</ele>
        <time>2022-04-25T15:40:15Z</time>
      </trkpt>
      <trkpt lat="44.51766" lon="2.75306">
        <ele>549.6</ele>
        <time>2022-04-25T15:40:19Z</time>
      </trkpt>
      <trkpt lat="44.51766" lon="2.75305">
        <ele>549.6</ele>
        <time>2022-04-25T15:40:20Z</time>
      </trkpt>
      <trkpt lat="44.51767" lon="2.75305">
        <ele>549.6</ele>
        <time>2022-04-25T15:40:22Z</time>
      </trkpt>
      <trkpt lat="44.5177" lon="2.75307">
        <ele>550</ele>
        <time>2022-04-25T15:40:29Z</time>
      </trkpt>
      <trkpt lat="44.51771" lon="2.75305">
        <ele>549.6</ele>
        <time>2022-04-25T15:40:45Z</time>
      </trkpt>
      <trkpt lat="44.5177" lon="2.75311">
        <ele>549.2</ele>
        <time>2022-04-25T15:41:00Z</time>
      </trkpt>
      <trkpt lat="44.51771" lon="2.75312">
        <ele>549</ele>
        <time>2022-04-25T15:41:02Z</time>
      </trkpt>
      <trkpt lat="44.5177" lon="2.75315">
        <ele>548.8</ele>
        <time>2022-04-25T15:41:04Z</time>
      </trkpt>
      <trkpt lat="44.5177" lon="2.75316">
        <ele>548.6</ele>
        <time>2022-04-25T15:41:05Z</time>
      </trkpt>
      <trkpt lat="44.5177" lon="2.75317">
        <ele>548.4</ele>
        <time>2022-04-25T15:41:07Z</time>
      </trkpt>
      <trkpt lat="44.5177" lon="2.75314">
        <ele>547.6</ele>
        <time>2022-04-25T15:41:11Z</time>
      </trkpt>
      <trkpt lat="44.51769" lon="2.75312">
        <ele>548</ele>
        <time>2022-04-25T15:41:17Z</time>
      </trkpt>
      <trkpt lat="44.51768" lon="2.75314">
        <ele>548.6</ele>
        <time>2022-04-25T15:41:26Z</time>
      </trkpt>
      <trkpt lat="44.51769" lon="2.75313">
        <ele>548.4</ele>
        <time>2022-04-25T15:41:32Z</time>
      </trkpt>
      <trkpt lat="44.51771" lon="2.75308">
        <ele>548.8</ele>
        <time>2022-04-25T15:41:38Z</time>
      </trkpt>
      <trkpt lat="44.51768" lon="2.75311">
        <ele>548.2</ele>
        <time>2022-04-25T15:41:47Z</time>
      </trkpt>
      <trkpt lat="44.5177" lon="2.75313">
        <ele>547.8</ele>
        <time>2022-04-25T15:41:53Z</time>
      </trkpt>
      <trkpt lat="44.51771" lon="2.75314">
        <ele>548.4</ele>
        <time>2022-04-25T15:42:00Z</time>
      </trkpt>
      <trkpt lat="44.51774" lon="2.75314">
        <ele>549</ele>
        <time>2022-04-25T15:42:07Z</time>
      </trkpt>
      <trkpt lat="44.51777" lon="2.75312">
        <ele>549.8</ele>
        <time>2022-04-25T15:42:12Z</time>
      </trkpt>
      <trkpt lat="44.51778" lon="2.75312">
        <ele>550.4</ele>
        <time>2022-04-25T15:42:15Z</time>
      </trkpt>
      <trkpt lat="44.51782" lon="2.75313">
        <ele>550.8</ele>
        <time>2022-04-25T15:42:20Z</time>
      </trkpt>
      <trkpt lat="44.51782" lon="2.75312">
        <ele>551</ele>
        <time>2022-04-25T15:42:21Z</time>
      </trkpt>
      <trkpt lat="44.51783" lon="2.75311">
        <ele>551</ele>
        <time>2022-04-25T15:42:23Z</time>
      </trkpt>
      <trkpt lat="44.51783" lon="2.75311">
        <ele>551</ele>
        <time>2022-04-25T15:42:24Z</time>
      </trkpt>
      <trkpt lat="44.51784" lon="2.75309">
        <ele>551</ele>
        <time>2022-04-25T15:42:31Z</time>
      </trkpt>
      <trkpt lat="44.51785" lon="2.75303">
        <ele>550.8</ele>
        <time>2022-04-25T15:42:39Z</time>
      </trkpt>
      <trkpt lat="44.5179" lon="2.75307">
        <ele>551</ele>
        <time>2022-04-25T15:42:47Z</time>
      </trkpt>
      <trkpt lat="44.51791" lon="2.75302">
        <ele>551</ele>
        <time>2022-04-25T15:42:52Z</time>
      </trkpt>
      <trkpt lat="44.5179" lon="2.75299">
        <ele>551</ele>
        <time>2022-04-25T15:42:58Z</time>
      </trkpt>
      <trkpt lat="44.51791" lon="2.75298">
        <ele>551</ele>
        <time>2022-04-25T15:43:03Z</time>
      </trkpt>
      <trkpt lat="44.51791" lon="2.75298">
        <ele>550.8</ele>
        <time>2022-04-25T15:43:09Z</time>
      </trkpt>
      <trkpt lat="44.5179" lon="2.75298">
        <ele>550.8</ele>
        <time>2022-04-25T15:43:15Z</time>
      </trkpt>
      <trkpt lat="44.51787" lon="2.75299">
        <ele>551</ele>
        <time>2022-04-25T15:43:21Z</time>
      </trkpt>
      <trkpt lat="44.51787" lon="2.75301">
        <ele>551.2</ele>
        <time>2022-04-25T15:43:28Z</time>
      </trkpt>
      <trkpt lat="44.51786" lon="2.75304">
        <ele>551.4</ele>
        <time>2022-04-25T15:43:35Z</time>
      </trkpt>
      <trkpt lat="44.51786" lon="2.75306">
        <ele>551.4</ele>
        <time>2022-04-25T15:43:42Z</time>
      </trkpt>
      <trkpt lat="44.51787" lon="2.75305">
        <ele>551.4</ele>
        <time>2022-04-25T15:43:55Z</time>
      </trkpt>
      <trkpt lat="44.51788" lon="2.75306">
        <ele>551.4</ele>
        <time>2022-04-25T15:44:02Z</time>
      </trkpt>
      <trkpt lat="44.51788" lon="2.75308">
        <ele>551.4</ele>
        <time>2022-04-25T15:44:05Z</time>
      </trkpt>
      <trkpt lat="44.51787" lon="2.75309">
        <ele>551.4</ele>
        <time>2022-04-25T15:44:16Z</time>
      </trkpt>
      <trkpt lat="44.51791" lon="2.75309">
        <ele>551.4</ele>
        <time>2022-04-25T15:44:31Z</time>
      </trkpt>
      <trkpt lat="44.51795" lon="2.753">
        <ele>551.4</ele>
        <time>2022-04-25T15:44:38Z</time>
      </trkpt>
      <trkpt lat="44.51795" lon="2.75297">
        <ele>551.6</ele>
        <time>2022-04-25T15:44:40Z</time>
      </trkpt>
      <trkpt lat="44.51794" lon="2.75292">
        <ele>552</ele>
        <time>2022-04-25T15:44:42Z</time>
      </trkpt>
      <trkpt lat="44.51798" lon="2.75286">
        <ele>552.6</ele>
        <time>2022-04-25T15:44:51Z</time>
      </trkpt>
      <trkpt lat="44.51799" lon="2.75286">
        <ele>552.8</ele>
        <time>2022-04-25T15:44:56Z</time>
      </trkpt>
      <trkpt lat="44.51798" lon="2.75285">
        <ele>552.4</ele>
        <time>2022-04-25T15:45:02Z</time>
      </trkpt>
      <trkpt lat="44.51793" lon="2.75291">
        <ele>552.6</ele>
        <time>2022-04-25T15:45:11Z</time>
      </trkpt>
      <trkpt lat="44.51792" lon="2.75292">
        <ele>552.6</ele>
        <time>2022-04-25T15:45:12Z</time>
      </trkpt>
      <trkpt lat="44.51791" lon="2.75294">
        <ele>552.6</ele>
        <time>2022-04-25T15:45:15Z</time>
      </trkpt>
      <trkpt lat="44.5179" lon="2.75292">
        <ele>552.8</ele>
        <time>2022-04-25T15:45:17Z</time>
      </trkpt>
      <trkpt lat="44.51791" lon="2.75289">
        <ele>552.8</ele>
        <time>2022-04-25T15:45:20Z</time>
      </trkpt>
      <trkpt lat="44.51792" lon="2.75288">
        <ele>552.6</ele>
        <time>2022-04-25T15:45:21Z</time>
      </trkpt>
      <trkpt lat="44.51793" lon="2.75282">
        <ele>552.8</ele>
        <time>2022-04-25T15:45:26Z</time>
      </trkpt>
      <trkpt lat="44.51793" lon="2.75281">
        <ele>553</ele>
        <time>2022-04-25T15:45:27Z</time>
      </trkpt>
      <trkpt lat="44.51793" lon="2.75279">
        <ele>553.2</ele>
        <time>2022-04-25T15:45:28Z</time>
      </trkpt>
      <trkpt lat="44.51795" lon="2.75275">
        <ele>553.6</ele>
        <time>2022-04-25T15:45:31Z</time>
      </trkpt>
      <trkpt lat="44.51795" lon="2.75274">
        <ele>553.8</ele>
        <time>2022-04-25T15:45:32Z</time>
      </trkpt>
      <trkpt lat="44.51796" lon="2.75271">
        <ele>554.2</ele>
        <time>2022-04-25T15:45:34Z</time>
      </trkpt>
      <trkpt lat="44.51801" lon="2.75255">
        <ele>554.4</ele>
        <time>2022-04-25T15:45:44Z</time>
      </trkpt>
      <trkpt lat="44.51797" lon="2.75244">
        <ele>554</ele>
        <time>2022-04-25T15:45:53Z</time>
      </trkpt>
      <trkpt lat="44.51793" lon="2.75242">
        <ele>555.4</ele>
        <time>2022-04-25T15:45:58Z</time>
      </trkpt>
      <trkpt lat="44.51791" lon="2.75241">
        <ele>555.8</ele>
        <time>2022-04-25T15:46:00Z</time>
      </trkpt>
      <trkpt lat="44.5179" lon="2.75242">
        <ele>555.4</ele>
        <time>2022-04-25T15:46:01Z</time>
      </trkpt>
      <trkpt lat="44.51789" lon="2.75239">
        <ele>554</ele>
        <time>2022-04-25T15:46:05Z</time>
      </trkpt>
      <trkpt lat="44.5179" lon="2.75236">
        <ele>553.6</ele>
        <time>2022-04-25T15:46:08Z</time>
      </trkpt>
      <trkpt lat="44.51791" lon="2.75235">
        <ele>553.4</ele>
        <time>2022-04-25T15:46:10Z</time>
      </trkpt>
      <trkpt lat="44.51793" lon="2.75233">
        <ele>553</ele>
        <time>2022-04-25T15:46:12Z</time>
      </trkpt>
      <trkpt lat="44.51797" lon="2.75228">
        <ele>552.6</ele>
        <time>2022-04-25T15:46:18Z</time>
      </trkpt>
      <trkpt lat="44.51798" lon="2.75228">
        <ele>552.2</ele>
        <time>2022-04-25T15:46:20Z</time>
      </trkpt>
      <trkpt lat="44.51801" lon="2.75224">
        <ele>551.8</ele>
        <time>2022-04-25T15:46:25Z</time>
      </trkpt>
      <trkpt lat="44.51803" lon="2.75222">
        <ele>552</ele>
        <time>2022-04-25T15:46:27Z</time>
      </trkpt>
      <trkpt lat="44.51808" lon="2.7522">
        <ele>551.8</ele>
        <time>2022-04-25T15:46:32Z</time>
      </trkpt>
      <trkpt lat="44.51813" lon="2.75222">
        <ele>551.4</ele>
        <time>2022-04-25T15:46:38Z</time>
      </trkpt>
      <trkpt lat="44.51815" lon="2.75228">
        <ele>550.8</ele>
        <time>2022-04-25T15:46:44Z</time>
      </trkpt>
      <trkpt lat="44.51815" lon="2.75232">
        <ele>550.8</ele>
        <time>2022-04-25T15:46:47Z</time>
      </trkpt>
      <trkpt lat="44.51816" lon="2.75249">
        <ele>552.6</ele>
        <time>2022-04-25T15:46:59Z</time>
      </trkpt>
      <trkpt lat="44.51815" lon="2.75263">
        <ele>552.4</ele>
        <time>2022-04-25T15:47:10Z</time>
      </trkpt>
      <trkpt lat="44.51812" lon="2.75278">
        <ele>552.4</ele>
        <time>2022-04-25T15:47:24Z</time>
      </trkpt>
      <trkpt lat="44.51812" lon="2.75282">
        <ele>551.6</ele>
        <time>2022-04-25T15:47:28Z</time>
      </trkpt>
      <trkpt lat="44.51812" lon="2.75288">
        <ele>550.6</ele>
        <time>2022-04-25T15:47:33Z</time>
      </trkpt>
      <trkpt lat="44.51811" lon="2.75294">
        <ele>549.2</ele>
        <time>2022-04-25T15:47:38Z</time>
      </trkpt>
      <trkpt lat="44.51808" lon="2.75301">
        <ele>548.2</ele>
        <time>2022-04-25T15:47:44Z</time>
      </trkpt>
      <trkpt lat="44.51804" lon="2.75311">
        <ele>547.6</ele>
        <time>2022-04-25T15:47:52Z</time>
      </trkpt>
      <trkpt lat="44.51803" lon="2.75314">
        <ele>547.2</ele>
        <time>2022-04-25T15:47:55Z</time>
      </trkpt>
      <trkpt lat="44.51803" lon="2.75319">
        <ele>547</ele>
        <time>2022-04-25T15:48:00Z</time>
      </trkpt>
      <trkpt lat="44.518" lon="2.75323">
        <ele>546.8</ele>
        <time>2022-04-25T15:48:05Z</time>
      </trkpt>
      <trkpt lat="44.51794" lon="2.75324">
        <ele>546.2</ele>
        <time>2022-04-25T15:48:12Z</time>
      </trkpt>
      <trkpt lat="44.5179" lon="2.75323">
        <ele>546</ele>
        <time>2022-04-25T15:48:17Z</time>
      </trkpt>
      <trkpt lat="44.51777" lon="2.75318">
        <ele>545.2</ele>
        <time>2022-04-25T15:48:29Z</time>
      </trkpt>
      <trkpt lat="44.51763" lon="2.75313">
        <ele>545</ele>
        <time>2022-04-25T15:48:43Z</time>
      </trkpt>
      <trkpt lat="44.51753" lon="2.7531">
        <ele>544.6</ele>
        <time>2022-04-25T15:48:55Z</time>
      </trkpt>
      <trkpt lat="44.51753" lon="2.7531">
        <ele>544.6</ele>
        <time>2022-04-25T15:48:56Z</time>
      </trkpt>
      <trkpt lat="44.51753" lon="2.75311">
        <ele>544.2</ele>
        <time>2022-04-25T15:49:00Z</time>
      </trkpt>
      <trkpt lat="44.51752" lon="2.75311">
        <ele>544.2</ele>
        <time>2022-04-25T15:49:01Z</time>
      </trkpt>
      <trkpt lat="44.51751" lon="2.75312">
        <ele>544</ele>
        <time>2022-04-25T15:49:03Z</time>
      </trkpt>
      <trkpt lat="44.51742" lon="2.75315">
        <ele>543</ele>
        <time>2022-04-25T15:49:13Z</time>
      </trkpt>
      <trkpt lat="44.5174" lon="2.75319">
        <ele>542.6</ele>
        <time>2022-04-25T15:49:20Z</time>
      </trkpt>
      <trkpt lat="44.51741" lon="2.75316">
        <ele>542.4</ele>
        <time>2022-04-25T15:49:24Z</time>
      </trkpt>
      <trkpt lat="44.51743" lon="2.75313">
        <ele>542.6</ele>
        <time>2022-04-25T15:49:34Z</time>
      </trkpt>
      <trkpt lat="44.51739" lon="2.7531">
        <ele>543</ele>
        <time>2022-04-25T15:49:47Z</time>
      </trkpt>
      <trkpt lat="44.51742" lon="2.753">
        <ele>543.4</ele>
        <time>2022-04-25T15:49:57Z</time>
      </trkpt>
      <trkpt lat="44.51742" lon="2.75299">
        <ele>543.6</ele>
        <time>2022-04-25T15:49:58Z</time>
      </trkpt>
      <trkpt lat="44.51743" lon="2.75297">
        <ele>543.8</ele>
        <time>2022-04-25T15:50:00Z</time>
      </trkpt>
      <trkpt lat="44.51744" lon="2.75296">
        <ele>544</ele>
        <time>2022-04-25T15:50:02Z</time>
      </trkpt>
      <trkpt lat="44.51743" lon="2.7529">
        <ele>543.4</ele>
        <time>2022-04-25T15:50:09Z</time>
      </trkpt>
      <trkpt lat="44.51744" lon="2.75283">
        <ele>543.2</ele>
        <time>2022-04-25T15:50:20Z</time>
      </trkpt>
      <trkpt lat="44.51744" lon="2.75277">
        <ele>543.6</ele>
        <time>2022-04-25T15:50:51Z</time>
      </trkpt>
      <trkpt lat="44.51744" lon="2.75272">
        <ele>543.6</ele>
        <time>2022-04-25T15:50:54Z</time>
      </trkpt>
      <trkpt lat="44.51744" lon="2.7527">
        <ele>543.6</ele>
        <time>2022-04-25T15:50:57Z</time>
      </trkpt>
      <trkpt lat="44.51745" lon="2.75267">
        <ele>543.4</ele>
        <time>2022-04-25T15:50:59Z</time>
      </trkpt>
      <trkpt lat="44.51744" lon="2.7527">
        <ele>543</ele>
        <time>2022-04-25T15:51:04Z</time>
      </trkpt>
      <trkpt lat="44.51743" lon="2.75271">
        <ele>543.2</ele>
        <time>2022-04-25T15:51:17Z</time>
      </trkpt>
      <trkpt lat="44.5174" lon="2.75276">
        <ele>542.8</ele>
        <time>2022-04-25T15:51:27Z</time>
      </trkpt>
      <trkpt lat="44.51737" lon="2.75278">
        <ele>542.8</ele>
        <time>2022-04-25T15:51:42Z</time>
      </trkpt>
      <trkpt lat="44.51743" lon="2.75269">
        <ele>542.8</ele>
        <time>2022-04-25T15:51:48Z</time>
      </trkpt>
      <trkpt lat="44.51744" lon="2.75267">
        <ele>542.6</ele>
        <time>2022-04-25T15:51:49Z</time>
      </trkpt>
      <trkpt lat="44.51747" lon="2.75265">
        <ele>542.6</ele>
        <time>2022-04-25T15:51:52Z</time>
      </trkpt>
      <trkpt lat="44.51748" lon="2.7526">
        <ele>542.6</ele>
        <time>2022-04-25T15:51:54Z</time>
      </trkpt>
      <trkpt lat="44.51751" lon="2.75256">
        <ele>542</ele>
        <time>2022-04-25T15:51:57Z</time>
      </trkpt>
      <trkpt lat="44.51754" lon="2.7525">
        <ele>541.6</ele>
        <time>2022-04-25T15:52:01Z</time>
      </trkpt>
      <trkpt lat="44.51759" lon="2.75241">
        <ele>541.6</ele>
        <time>2022-04-25T15:52:09Z</time>
      </trkpt>
      <trkpt lat="44.51765" lon="2.75233">
        <ele>541.8</ele>
        <time>2022-04-25T15:52:17Z</time>
      </trkpt>
      <trkpt lat="44.51766" lon="2.75232">
        <ele>542</ele>
        <time>2022-04-25T15:52:18Z</time>
      </trkpt>
      <trkpt lat="44.51772" lon="2.75225">
        <ele>541.8</ele>
        <time>2022-04-25T15:52:25Z</time>
      </trkpt>
      <trkpt lat="44.51778" lon="2.75218">
        <ele>542</ele>
        <time>2022-04-25T15:52:33Z</time>
      </trkpt>
      <trkpt lat="44.51783" lon="2.75213">
        <ele>542.2</ele>
        <time>2022-04-25T15:52:40Z</time>
      </trkpt>
      <trkpt lat="44.51791" lon="2.75203">
        <ele>542.4</ele>
        <time>2022-04-25T15:52:48Z</time>
      </trkpt>
      <trkpt lat="44.51799" lon="2.75194">
        <ele>542</ele>
        <time>2022-04-25T15:52:56Z</time>
      </trkpt>
      <trkpt lat="44.51809" lon="2.75186">
        <ele>542.2</ele>
        <time>2022-04-25T15:53:06Z</time>
      </trkpt>
      <trkpt lat="44.51817" lon="2.75178">
        <ele>542.2</ele>
        <time>2022-04-25T15:53:13Z</time>
      </trkpt>
      <trkpt lat="44.51821" lon="2.75172">
        <ele>541.2</ele>
        <time>2022-04-25T15:53:20Z</time>
      </trkpt>
      <trkpt lat="44.51823" lon="2.7517">
        <ele>541</ele>
        <time>2022-04-25T15:53:23Z</time>
      </trkpt>
      <trkpt lat="44.51823" lon="2.75169">
        <ele>540.8</ele>
        <time>2022-04-25T15:53:24Z</time>
      </trkpt>
      <trkpt lat="44.51825" lon="2.75166">
        <ele>540.4</ele>
        <time>2022-04-25T15:53:28Z</time>
      </trkpt>
      <trkpt lat="44.51826" lon="2.75163">
        <ele>539.6</ele>
        <time>2022-04-25T15:53:32Z</time>
      </trkpt>
      <trkpt lat="44.51826" lon="2.75162">
        <ele>539.2</ele>
        <time>2022-04-25T15:53:34Z</time>
      </trkpt>
      <trkpt lat="44.51828" lon="2.75157">
        <ele>538.6</ele>
        <time>2022-04-25T15:53:39Z</time>
      </trkpt>
      <trkpt lat="44.51829" lon="2.75155">
        <ele>538.6</ele>
        <time>2022-04-25T15:53:40Z</time>
      </trkpt>
      <trkpt lat="44.5183" lon="2.7515">
        <ele>537.6</ele>
        <time>2022-04-25T15:53:45Z</time>
      </trkpt>
      <trkpt lat="44.51831" lon="2.75144">
        <ele>536.8</ele>
        <time>2022-04-25T15:53:49Z</time>
      </trkpt>
      <trkpt lat="44.51833" lon="2.75138">
        <ele>536.4</ele>
        <time>2022-04-25T15:53:53Z</time>
      </trkpt>
      <trkpt lat="44.51834" lon="2.75135">
        <ele>536</ele>
        <time>2022-04-25T15:53:56Z</time>
      </trkpt>
      <trkpt lat="44.51835" lon="2.75131">
        <ele>535.4</ele>
        <time>2022-04-25T15:53:59Z</time>
      </trkpt>
      <trkpt lat="44.51835" lon="2.75126">
        <ele>534.2</ele>
        <time>2022-04-25T15:54:03Z</time>
      </trkpt>
      <trkpt lat="44.51836" lon="2.75118">
        <ele>532.8</ele>
        <time>2022-04-25T15:54:08Z</time>
      </trkpt>
      <trkpt lat="44.51837" lon="2.75116">
        <ele>532</ele>
        <time>2022-04-25T15:54:11Z</time>
      </trkpt>
      <trkpt lat="44.51838" lon="2.75112">
        <ele>531.8</ele>
        <time>2022-04-25T15:54:13Z</time>
      </trkpt>
      <trkpt lat="44.51839" lon="2.75106">
        <ele>530.8</ele>
        <time>2022-04-25T15:54:18Z</time>
      </trkpt>
      <trkpt lat="44.51839" lon="2.751">
        <ele>530.2</ele>
        <time>2022-04-25T15:54:23Z</time>
      </trkpt>
      <trkpt lat="44.51839" lon="2.75094">
        <ele>529.6</ele>
        <time>2022-04-25T15:54:27Z</time>
      </trkpt>
      <trkpt lat="44.51843" lon="2.75089">
        <ele>528.8</ele>
        <time>2022-04-25T15:54:34Z</time>
      </trkpt>
      <trkpt lat="44.51844" lon="2.75088">
        <ele>528.8</ele>
        <time>2022-04-25T15:54:35Z</time>
      </trkpt>
      <trkpt lat="44.51845" lon="2.75087">
        <ele>528.4</ele>
        <time>2022-04-25T15:54:36Z</time>
      </trkpt>
      <trkpt lat="44.51847" lon="2.75081">
        <ele>527.8</ele>
        <time>2022-04-25T15:54:41Z</time>
      </trkpt>
      <trkpt lat="44.51848" lon="2.7508">
        <ele>527.2</ele>
        <time>2022-04-25T15:54:43Z</time>
      </trkpt>
      <trkpt lat="44.51849" lon="2.75078">
        <ele>526.6</ele>
        <time>2022-04-25T15:54:45Z</time>
      </trkpt>
      <trkpt lat="44.51851" lon="2.75077">
        <ele>526</ele>
        <time>2022-04-25T15:54:47Z</time>
      </trkpt>
      <trkpt lat="44.51853" lon="2.75075">
        <ele>525.4</ele>
        <time>2022-04-25T15:54:50Z</time>
      </trkpt>
      <trkpt lat="44.51853" lon="2.75074">
        <ele>525.2</ele>
        <time>2022-04-25T15:54:51Z</time>
      </trkpt>
      <trkpt lat="44.51853" lon="2.75073">
        <ele>525.2</ele>
        <time>2022-04-25T15:54:52Z</time>
      </trkpt>
      <trkpt lat="44.51854" lon="2.75073">
        <ele>524.8</ele>
        <time>2022-04-25T15:54:53Z</time>
      </trkpt>
      <trkpt lat="44.51854" lon="2.75072">
        <ele>524.8</ele>
        <time>2022-04-25T15:54:54Z</time>
      </trkpt>
      <trkpt lat="44.51859" lon="2.75072">
        <ele>523.6</ele>
        <time>2022-04-25T15:54:59Z</time>
      </trkpt>
      <trkpt lat="44.51861" lon="2.75071">
        <ele>522.6</ele>
        <time>2022-04-25T15:55:02Z</time>
      </trkpt>
      <trkpt lat="44.51864" lon="2.7507">
        <ele>521.8</ele>
        <time>2022-04-25T15:55:05Z</time>
      </trkpt>
      <trkpt lat="44.51866" lon="2.7507">
        <ele>521.4</ele>
        <time>2022-04-25T15:55:07Z</time>
      </trkpt>
      <trkpt lat="44.51869" lon="2.75071">
        <ele>520.4</ele>
        <time>2022-04-25T15:55:13Z</time>
      </trkpt>
      <trkpt lat="44.51871" lon="2.75072">
        <ele>519</ele>
        <time>2022-04-25T15:55:18Z</time>
      </trkpt>
      <trkpt lat="44.51873" lon="2.75072">
        <ele>518.8</ele>
        <time>2022-04-25T15:55:19Z</time>
      </trkpt>
      <trkpt lat="44.51876" lon="2.7507">
        <ele>518</ele>
        <time>2022-04-25T15:55:22Z</time>
      </trkpt>
      <trkpt lat="44.51878" lon="2.75061">
        <ele>517.2</ele>
        <time>2022-04-25T15:55:28Z</time>
      </trkpt>
      <trkpt lat="44.51878" lon="2.75059">
        <ele>517.4</ele>
        <time>2022-04-25T15:55:30Z</time>
      </trkpt>
      <trkpt lat="44.51877" lon="2.75054">
        <ele>517.8</ele>
        <time>2022-04-25T15:55:34Z</time>
      </trkpt>
    </trkseg>
  </trk>
</gpx>